createdAt,value
2023-05-02T00:07:17.721Z,4.94
2023-05-02T00:12:41.734Z,4.82
2023-05-02T00:18:05.312Z,4.80
2023-05-02T00:23:29.206Z,4.66
2023-05-02T00:28:53.208Z,4.57
2023-05-02T00:34:18.617Z,4.49
2023-05-02T00:39:44.573Z,4.40
2023-05-02T00:45:10.502Z,4.20
2023-05-02T00:50:40.214Z,4.09
2023-05-02T00:56:06.806Z,4.05
2023-05-02T01:01:49.454Z,3.94
2023-05-02T01:07:39.125Z,3.66
2023-05-02T01:13:22.949Z,3.69
2023-05-02T01:18:50.824Z,3.47
2023-05-02T01:24:43.183Z,3.50
2023-05-02T01:30:12.273Z,3.50
2023-05-02T01:35:40.097Z,3.38
2023-05-02T01:41:09.414Z,3.30
2023-05-02T01:46:37.284Z,3.35
2023-05-02T01:52:08.296Z,3.20
2023-05-02T01:57:35.350Z,3.08
2023-05-02T02:03:02.268Z,3.11
2023-05-02T02:08:28.030Z,3.11
2023-05-02T02:14:03.623Z,3.06
2023-05-02T02:19:49.457Z,2.92
2023-05-02T02:25:15.812Z,2.94
2023-05-02T02:30:42.874Z,2.94
2023-05-02T02:36:27.892Z,3.07
2023-05-02T02:41:59.864Z,3.11
2023-05-02T02:47:33.951Z,3.11
2023-05-02T02:53:20.120Z,3.20
2023-05-02T02:58:58.084Z,3.27
2023-05-02T03:04:26.690Z,3.28
2023-05-02T03:09:52.272Z,3.31
2023-05-02T03:16:01.932Z,3.49
2023-05-02T03:21:29.820Z,3.46
2023-05-02T03:27:02.298Z,3.58
2023-05-02T03:32:35.077Z,3.79
2023-05-02T03:38:01.407Z,4.03
2023-05-02T03:43:28.374Z,4.13
2023-05-02T03:48:54.597Z,4.32
2023-05-02T03:54:19.732Z,4.32
2023-05-02T03:59:47.854Z,4.49
2023-05-02T04:05:23.194Z,4.78
2023-05-02T04:10:47.924Z,4.89
2023-05-02T04:16:12.044Z,5.08
2023-05-02T04:21:41.142Z,5.29
2023-05-02T04:27:06.374Z,5.53
2023-05-02T04:32:34.102Z,6.11
2023-05-02T04:38:01.898Z,7.62
2023-05-02T04:43:28.810Z,8.74
2023-05-02T04:48:58.948Z,9.03
2023-05-02T04:54:24.060Z,9.04
2023-05-02T04:59:49.807Z,9.28
2023-05-02T05:05:15.723Z,9.88
2023-05-02T05:10:45.916Z,10.50
2023-05-02T05:16:11.945Z,10.84
2023-05-02T05:21:39.419Z,11.23
2023-05-02T05:27:06.196Z,11.35
2023-05-02T05:32:31.314Z,11.54
2023-05-02T05:37:57.602Z,12.12
2023-05-02T05:43:23.925Z,12.16
2023-05-02T05:48:50.296Z,12.06
2023-05-02T05:54:15.691Z,12.31
2023-05-02T05:59:41.134Z,12.37
2023-05-02T06:05:08.203Z,12.56
2023-05-02T06:10:34.752Z,12.83
2023-05-02T06:16:04.936Z,12.83
2023-05-02T06:21:32.631Z,12.74
2023-05-02T06:26:58.847Z,12.94
2023-05-02T06:32:23.763Z,12.97
2023-05-02T06:37:48.379Z,13.16
2023-05-02T06:43:14.706Z,13.01
2023-05-02T06:48:39.583Z,13.20
2023-05-02T06:54:04.312Z,13.17
2023-05-02T06:59:28.877Z,13.07
2023-05-02T07:04:54.554Z,12.82
2023-05-02T07:10:21.806Z,12.95
2023-05-02T07:15:47.052Z,12.80
2023-05-02T07:21:11.802Z,12.80
2023-05-02T07:26:38.069Z,12.93
2023-05-02T07:32:03.437Z,13.23
2023-05-02T07:37:29.158Z,12.85
2023-05-02T07:42:55.252Z,12.73
2023-05-02T07:48:22.417Z,12.62
2023-05-02T07:53:47.389Z,12.55
2023-05-02T07:59:13.732Z,12.41
2023-05-02T08:04:37.343Z,12.82
2023-05-02T08:10:01.501Z,12.88
2023-05-02T08:15:26.721Z,12.96
2023-05-02T08:20:52.840Z,13.31
2023-05-02T08:26:18.518Z,13.28
2023-05-02T08:31:41.931Z,13.43
2023-05-02T08:37:13.145Z,13.44
2023-05-02T08:42:36.670Z,13.44
2023-05-02T08:48:01.327Z,13.75
2023-05-02T08:53:26.536Z,13.56
2023-05-02T08:58:49.014Z,13.62
2023-05-02T09:04:11.987Z,13.86
2023-05-02T09:09:35.650Z,13.95
2023-05-02T09:15:20.736Z,14.07
2023-05-02T09:20:46.545Z,14.16
2023-05-02T09:26:20.858Z,14.07
2023-05-02T09:31:55.751Z,14.08
2023-05-02T09:37:38.128Z,14.13
2023-05-02T09:43:00.827Z,14.16
2023-05-02T09:48:23.068Z,14.24
2023-05-02T09:53:45.947Z,14.13
2023-05-02T09:59:17.943Z,14.00
2023-05-02T10:04:40.719Z,13.90
2023-05-02T10:10:05.999Z,13.91
2023-05-02T10:15:32.235Z,13.69
2023-05-02T10:20:59.697Z,13.84
2023-05-02T10:26:24.214Z,13.89
2023-05-02T10:31:50.278Z,13.93
2023-05-02T10:37:15.617Z,14.00
2023-05-02T10:42:43.809Z,13.79
2023-05-02T10:48:19.389Z,13.79
2023-05-02T10:53:46.947Z,13.93
2023-05-02T10:59:31.713Z,14.01
2023-05-02T11:05:07.687Z,14.21
2023-05-02T12:51:42.188Z,14.25
2023-05-02T12:57:05.508Z,14.34
2023-05-02T13:02:28.641Z,14.37
2023-05-02T13:07:51.537Z,14.43
2023-05-02T13:13:13.781Z,14.53
2023-05-02T13:18:36.153Z,14.63
2023-05-02T13:24:00.387Z,14.58
2023-05-02T13:29:24.006Z,14.52
2023-05-02T13:34:46.008Z,14.45
2023-05-02T13:40:07.992Z,14.50
2023-05-02T13:45:30.053Z,14.53
2023-05-02T13:50:51.896Z,14.51
2023-05-02T13:56:14.810Z,14.48
2023-05-02T14:01:37.486Z,14.49
2023-05-02T14:06:59.661Z,14.43
2023-05-02T14:12:21.997Z,14.41
2023-05-02T14:17:44.214Z,14.45
2023-05-02T14:23:07.589Z,14.41
2023-05-02T14:28:30.150Z,14.43
2023-05-02T14:33:55.962Z,14.45
2023-05-02T14:39:19.799Z,14.45
2023-05-02T14:44:43.352Z,14.45
2023-05-02T14:50:07.526Z,14.47
2023-05-02T14:55:29.771Z,14.56
2023-05-02T15:00:52.787Z,14.56
2023-05-02T15:06:16.318Z,14.50
2023-05-02T15:11:39.176Z,14.48
2023-05-02T15:17:01.856Z,14.49
2023-05-02T15:22:26.834Z,14.51
2023-05-02T15:27:48.896Z,14.38
2023-05-02T15:33:10.887Z,14.12
2023-05-02T15:38:34.829Z,13.79
2023-05-02T15:43:57.675Z,13.46
2023-05-02T15:49:19.432Z,13.33
2023-05-02T15:54:41.719Z,13.21
2023-05-02T16:00:04.357Z,13.05
2023-05-02T16:05:29.048Z,12.87
2023-05-02T16:10:51.658Z,12.76
2023-05-02T16:16:14.362Z,12.44
2023-05-02T16:21:37.483Z,12.12
2023-05-02T16:26:59.546Z,11.76
2023-05-02T16:32:24.429Z,11.43
2023-05-02T16:37:47.700Z,11.00
2023-05-02T16:43:10.416Z,10.63
2023-05-02T16:48:32.628Z,10.31
2023-05-02T16:53:55.377Z,9.97
2023-05-02T16:59:18.016Z,9.62
2023-05-02T17:04:40.095Z,9.28
2023-05-02T17:10:02.477Z,8.95
2023-05-02T17:15:26.042Z,8.65
2023-05-02T17:20:48.681Z,8.34
2023-05-02T17:26:17.590Z,8.08
2023-05-02T17:31:39.882Z,7.82
2023-05-02T17:37:01.776Z,7.54
2023-05-02T17:42:23.436Z,7.32
2023-05-02T17:47:44.917Z,7.15
2023-05-02T17:53:07.281Z,6.93
2023-05-02T17:58:28.828Z,6.72
2023-05-02T18:03:50.904Z,6.58
2023-05-02T18:09:13.233Z,6.44
2023-05-02T18:14:35.394Z,6.28
2023-05-02T18:19:57.199Z,6.09
2023-05-02T18:25:18.876Z,5.92
2023-05-02T18:30:41.596Z,5.76
2023-05-02T18:36:03.108Z,5.60
2023-05-02T18:41:24.807Z,5.45
2023-05-02T18:46:46.476Z,5.33
2023-05-02T18:52:08.025Z,5.26
2023-05-02T18:57:29.953Z,5.22
2023-05-02T19:02:54.677Z,5.14
2023-05-02T19:08:16.548Z,5.03
2023-05-02T19:13:39.224Z,4.96
2023-05-02T19:19:03.919Z,4.88
2023-05-02T19:24:26.150Z,4.74
2023-05-02T19:29:47.611Z,4.62
2023-05-02T19:35:09.728Z,4.59
2023-05-02T19:40:33.942Z,4.50
2023-05-02T19:45:56.175Z,4.34
2023-05-02T19:51:22.350Z,4.21
2023-05-02T19:56:43.909Z,4.17
2023-05-02T20:02:06.360Z,4.12
2023-05-02T20:07:28.775Z,3.94
2023-05-02T20:12:50.438Z,3.80
2023-05-02T20:18:12.550Z,3.66
2023-05-02T20:23:35.213Z,3.57
2023-05-02T20:28:59.798Z,3.47
2023-05-02T20:34:21.805Z,3.39
2023-05-02T20:39:43.389Z,3.29
2023-05-02T20:45:07.709Z,3.21
2023-05-02T20:50:29.818Z,3.10
2023-05-02T20:55:51.939Z,2.98
2023-05-02T21:01:13.925Z,2.89
2023-05-02T21:06:35.967Z,2.82
2023-05-02T21:11:57.764Z,2.74
2023-05-02T21:17:19.712Z,2.69
2023-05-02T21:22:42.793Z,2.62
2023-05-02T21:28:06.436Z,2.54
2023-05-02T21:33:28.762Z,2.46
2023-05-02T21:38:51.166Z,2.42
2023-05-02T21:44:14.625Z,2.41
2023-05-02T21:49:36.804Z,2.40
2023-05-02T21:54:58.829Z,2.39
2023-05-02T22:00:21.278Z,2.35
2023-05-02T22:05:43.350Z,2.27
2023-05-02T22:11:11.513Z,2.22
2023-05-02T22:16:33.664Z,2.19
2023-05-02T22:21:57.454Z,2.14
2023-05-02T22:27:19.538Z,2.08
2023-05-02T22:32:42.209Z,2.06
2023-05-02T22:38:05.430Z,2.05
2023-05-02T22:43:27.228Z,2.09
2023-05-02T22:48:49.955Z,2.19
2023-05-02T22:54:11.958Z,2.29
2023-05-02T22:59:34.038Z,2.43
2023-05-02T23:04:55.953Z,2.50
2023-05-02T23:10:18.135Z,2.56
2023-05-02T23:15:40.964Z,2.60
2023-05-02T23:21:04.334Z,2.60
2023-05-02T23:26:26.809Z,2.59
2023-05-02T23:31:50.583Z,2.68
2023-05-02T23:37:13.600Z,2.70
2023-05-02T23:42:36.537Z,2.70
2023-05-02T23:47:58.469Z,2.63
2023-05-02T23:53:20.537Z,2.51
2023-05-02T23:58:43.023Z,2.43
